Time;durP1;ratioP1;P1;durP2;ratioP2;P2;SDS_P1;SDS_P2;PMS_P1;PMS_P2;Temp;Humidity;BMP_temperature;BMP_pressure;BME280_temperature;BME280_humidity;BME280_pressure;Samples;Min_cycle;Max_cycle;Signal;HPM_P1;HPM_P2
2022/04/18 00:01:37;;;;;;;7.13;4.93;;;15.20;42.20;;;;;;5035273;28;20055;-82
2022/04/18 00:04:03;;;;;;;7.43;4.55;;;15.30;42.10;;;;;;5032153;28;20507;-82
2022/04/18 00:06:29;;;;;;;7.10;4.68;;;15.10;41.80;;;;;;5032298;28;20021;-82
2022/04/18 00:08:54;;;;;;;8.10;4.20;;;15.10;42.90;;;;;;5032119;28;20432;-82
2022/04/18 00:11:20;;;;;;;8.15;4.95;;;15.20;41.80;;;;;;5032495;28;20033;-83
2022/04/18 00:13:46;;;;;;;7.80;5.20;;;15.40;42.30;;;;;;5032368;28;20381;-83
2022/04/18 00:16:11;;;;;;;7.47;4.47;;;15.50;42.80;;;;;;5032189;28;20455;-82
2022/04/18 00:18:37;;;;;;;8.45;4.45;;;15.50;42.40;;;;;;5033412;28;20018;-83
2022/04/18 00:21:03;;;;;;;6.03;3.90;;;15.40;42.30;;;;;;5032151;28;20029;-83
2022/04/18 00:23:28;;;;;;;7.00;3.85;;;15.30;42.00;;;;;;5032114;28;20132;-83
2022/04/18 00:25:54;;;;;;;6.18;3.80;;;14.90;43.30;;;;;;5032480;28;20419;-82
2022/04/18 00:28:19;;;;;;;6.30;4.07;;;14.80;41.70;;;;;;5033073;28;20029;-83
2022/04/18 00:30:45;;;;;;;6.85;4.28;;;14.90;42.60;;;;;;5032237;28;20032;-83
2022/04/18 00:33:11;;;;;;;6.55;4.20;;;15.00;42.90;;;;;;5032343;28;20030;-82
2022/04/18 00:35:38;;;;;;;7.88;4.10;;;15.40;42.30;;;;;;5032937;28;20452;-83
2022/04/18 00:38:04;;;;;;;6.78;4.50;;;15.60;42.40;;;;;;5032118;28;20025;-83
2022/04/18 00:40:29;;;;;;;8.55;4.45;;;15.70;42.30;;;;;;5033432;28;20028;-82
2022/04/18 00:43:05;;;;;;;6.18;3.80;;;15.50;42.60;;;;;;5031895;28;20064;-83
2022/04/18 00:45:31;;;;;;;6.97;4.10;;;15.60;42.50;;;;;;5032007;28;20052;-82
2022/04/18 00:47:57;;;;;;;6.30;4.05;;;15.60;42.30;;;;;;5033142;28;20021;-83
2022/04/18 00:50:26;;;;;;;5.95;3.75;;;15.60;42.70;;;;;;5035711;28;20037;-82
2022/04/18 00:52:55;;;;;;;6.03;4.10;;;15.30;41.70;;;;;;5035525;28;20063;-83
2022/04/18 00:55:23;;;;;;;6.82;3.88;;;15.40;42.80;;;;;;5035768;28;20029;-82
2022/04/18 00:57:51;;;;;;;5.63;3.40;;;15.40;42.20;;;;;;5035321;28;20025;-83
2022/04/18 01:00:16;;;;;;;6.55;3.47;;;15.40;41.60;;;;;;5035448;28;20067;-82
2022/04/18 01:02:42;;;;;;;7.00;3.35;;;15.50;41.40;;;;;;5036385;28;20124;-82
2022/04/18 01:05:08;;;;;;;5.38;3.28;;;14.90;42.30;;;;;;5056687;28;20033;-82
2022/04/18 01:07:34;;;;;;;6.40;3.97;;;14.70;43.70;;;;;;5038484;28;20024;-82
2022/04/18 01:10:04;;;;;;;7.20;3.83;;;14.70;44.70;;;;;;5056626;28;20060;-82
2022/04/18 01:12:30;;;;;;;5.60;3.70;;;15.10;44.30;;;;;;5056460;28;20035;-83
2022/04/18 01:14:56;;;;;;;5.45;3.72;;;15.30;43.60;;;;;;5038628;28;20025;-83
2022/04/18 01:17:21;;;;;;;5.47;3.50;;;15.50;43.20;;;;;;5038492;28;20116;-83
2022/04/18 01:19:47;;;;;;;5.22;3.40;;;15.50;43.20;;;;;;5038612;28;20021;-82
2022/04/18 01:22:13;;;;;;;5.57;3.45;;;15.60;43.10;;;;;;5038459;28;20479;-82
2022/04/18 01:30:12;;;;;;;5.97;3.50;;;15.50;42.10;;;;;;5056405;28;20032;-83
2022/04/18 01:32:37;;;;;;;6.10;3.50;;;15.10;42.70;;;;;;5038340;28;20028;-82
2022/04/18 01:35:04;;;;;;;5.57;3.38;;;14.00;44.90;;;;;;5056114;28;20025;-83
2022/04/18 01:37:30;;;;;;;5.53;3.53;;;14.20;45.00;;;;;;5038599;28;20378;-83
2022/04/18 01:39:56;;;;;;;5.00;3.22;;;14.40;46.10;;;;;;5056037;28;20029;-83
2022/04/18 01:42:22;;;;;;;5.40;3.08;;;14.90;45.50;;;;;;5055654;28;20447;-83
2022/04/18 01:44:48;;;;;;;5.28;3.25;;;15.20;44.30;;;;;;5038204;28;20029;-82
2022/04/18 01:47:14;;;;;;;6.13;3.30;;;15.10;45.40;;;;;;5037908;28;20025;-83
2022/04/18 01:49:40;;;;;;;5.10;3.42;;;15.20;44.90;;;;;;5056020;28;20060;-83
2022/04/18 01:52:06;;;;;;;5.25;3.08;;;15.00;44.20;;;;;;5038221;28;20025;-83
2022/04/18 01:54:32;;;;;;;5.38;3.47;;;14.80;44.50;;;;;;5055734;28;20026;-83
2022/04/18 01:56:58;;;;;;;4.95;3.13;;;15.00;44.20;;;;;;5037800;28;20488;-83
2022/04/18 01:59:23;;;;;;;5.88;3.40;;;15.10;42.80;;;;;;5037718;28;20071;-83
2022/04/18 02:01:50;;;;;;;6.10;3.42;;;14.90;43.90;;;;;;5055635;28;20033;-83
2022/04/18 02:04:15;;;;;;;4.85;3.05;;;14.90;44.80;;;;;;5034251;28;20052;-82
2022/04/18 02:06:41;;;;;;;6.72;3.65;;;14.90;44.30;;;;;;5034584;28;20029;-83
2022/04/18 02:09:07;;;;;;;5.72;3.10;;;15.10;44.10;;;;;;5035408;28;20395;-83
2022/04/18 02:11:33;;;;;;;6.25;3.55;;;15.10;44.20;;;;;;5034300;28;20028;-82
2022/04/18 02:13:59;;;;;;;5.72;3.67;;;15.20;44.70;;;;;;5034352;28;20031;-82
2022/04/18 02:16:28;;;;;;;8.07;4.55;;;14.90;45.20;;;;;;5034151;28;20035;-82
2022/04/18 02:18:54;;;;;;;5.40;3.60;;;14.50;46.50;;;;;;5034216;28;20072;-83
2022/04/18 02:21:20;;;;;;;5.45;3.70;;;14.40;46.70;;;;;;5033925;28;20029;-83
2022/04/18 02:23:46;;;;;;;7.13;3.72;;;14.60;46.20;;;;;;5033965;28;20032;-83
2022/04/18 02:26:11;;;;;;;6.00;3.72;;;14.80;45.50;;;;;;5035200;28;20472;-83
2022/04/18 02:28:37;;;;;;;6.30;3.90;;;14.70;45.60;;;;;;5034022;28;20032;-82
2022/04/18 02:31:04;;;;;;;6.88;4.10;;;14.60;45.70;;;;;;5034237;28;20022;-83
2022/04/18 02:33:30;;;;;;;7.68;4.05;;;14.60;45.70;;;;;;5033848;28;20026;-83
2022/04/18 02:35:55;;;;;;;6.18;3.70;;;14.80;45.50;;;;;;5035189;28;20022;-83
2022/04/18 02:38:21;;;;;;;6.57;3.97;;;14.90;45.30;;;;;;5033627;28;20029;-82
2022/04/18 02:40:47;;;;;;;5.70;3.85;;;14.70;46.30;;;;;;5033643;28;20124;-82
2022/04/18 02:43:13;;;;;;;6.63;3.70;;;14.90;46.10;;;;;;5033448;28;20029;-82
2022/04/18 02:45:38;;;;;;;6.13;3.85;;;14.90;45.40;;;;;;5034543;28;20095;-81
2022/04/18 02:48:05;;;;;;;6.78;3.67;;;15.00;45.20;;;;;;5033408;28;20029;-82
2022/04/18 02:50:31;;;;;;;7.40;4.00;;;15.10;44.90;;;;;;5033193;28;20083;-82
2022/04/18 02:53:00;;;;;;;6.13;3.70;;;15.10;45.40;;;;;;5033089;28;20349;-81
2022/04/18 02:55:25;;;;;;;5.70;3.63;;;15.20;45.30;;;;;;5034626;28;20029;-82
2022/04/18 02:57:52;;;;;;;5.75;3.65;;;15.20;45.40;;;;;;5033318;28;20029;-83
2022/04/18 03:00:19;;;;;;;6.22;3.70;;;15.30;45.10;;;;;;5033122;28;20053;-82
2022/04/18 03:02:44;;;;;;;7.35;3.72;;;15.40;44.80;;;;;;5034239;28;20037;-82
2022/04/18 03:05:12;;;;;;;6.07;3.65;;;15.30;44.80;;;;;;5033005;28;20060;-82
2022/04/18 03:07:38;;;;;;;7.30;3.80;;;15.40;44.90;;;;;;5033298;28;20495;-82
2022/04/18 03:10:05;;;;;;;7.53;3.95;;;15.40;44.70;;;;;;5032904;28;20026;-82
2022/04/18 03:12:31;;;;;;;6.03;3.92;;;15.50;44.40;;;;;;5032610;28;20041;-82
2022/04/18 03:14:57;;;;;;;6.05;3.58;;;15.60;44.20;;;;;;5033091;28;20025;-82
2022/04/18 03:17:22;;;;;;;6.30;3.95;;;15.60;43.80;;;;;;5033085;28;20029;-82
2022/04/18 03:19:49;;;;;;;5.97;3.50;;;15.60;43.50;;;;;;5033031;28;20491;-82
2022/04/18 03:22:14;;;;;;;6.20;3.40;;;15.60;43.50;;;;;;5033121;28;20029;-82
2022/04/18 03:24:40;;;;;;;5.95;3.78;;;15.60;42.90;;;;;;5032782;28;20033;-83
2022/04/18 03:27:06;;;;;;;6.70;3.60;;;15.40;43.70;;;;;;5033099;28;20041;-82
2022/04/18 03:29:32;;;;;;;5.80;3.63;;;15.10;43.70;;;;;;5032860;28;20021;-82
2022/04/18 03:31:58;;;;;;;6.30;3.90;;;15.20;43.40;;;;;;5032729;28;20045;-82
2022/04/18 03:34:25;;;;;;;7.10;3.55;;;15.40;43.30;;;;;;5032854;28;20511;-82
2022/04/18 03:39:51;;;;;;;6.07;3.40;;;15.40;43.30;;;;;;5034208;28;20024;-82
2022/04/18 03:42:18;;;;;;;7.40;3.75;;;15.30;42.40;;;;;;5032769;28;20068;-82
2022/04/18 03:44:46;;;;;;;7.43;3.88;;;15.30;42.60;;;;;;5032617;28;20032;-82
2022/04/18 03:47:16;;;;;;;5.68;3.50;;;15.40;43.00;;;;;;5032010;28;20033;-81
2022/04/18 03:49:42;;;;;;;5.53;3.50;;;15.40;42.70;;;;;;5032266;28;20026;-82
2022/04/18 03:52:08;;;;;;;5.65;3.60;;;15.50;42.70;;;;;;5033465;28;20027;-82
2022/04/18 03:54:35;;;;;;;5.70;3.45;;;15.50;42.50;;;;;;5033033;28;20059;-82
2022/04/18 03:57:02;;;;;;;6.97;3.60;;;15.50;43.10;;;;;;5032353;28;20055;-82
2022/04/18 03:59:28;;;;;;;5.65;3.40;;;15.50;42.80;;;;;;5032580;28;20071;-82
2022/04/18 04:01:54;;;;;;;6.07;3.72;;;15.40;43.10;;;;;;5033548;28;20075;-82
2022/04/18 04:04:19;;;;;;;7.15;4.18;;;15.40;43.10;;;;;;5032161;28;20049;-82
2022/04/18 04:06:45;;;;;;;6.50;4.03;;;15.30;42.80;;;;;;5032292;28;20025;-82
2022/04/18 04:09:11;;;;;;;7.50;4.53;;;15.10;43.40;;;;;;5033616;28;20105;-82
2022/04/18 04:11:37;;;;;;;5.85;3.70;;;14.70;44.90;;;;;;5033209;28;20025;-84
2022/04/18 04:14:03;;;;;;;5.38;3.10;;;14.40;45.00;;;;;;5032354;28;20491;-82
2022/04/18 04:16:29;;;;;;;5.22;3.13;;;14.30;45.00;;;;;;5033841;28;20029;-82
2022/04/18 04:18:54;;;;;;;5.82;3.30;;;14.40;44.30;;;;;;5032152;28;20144;-81
2022/04/18 04:21:20;;;;;;;4.72;3.10;;;14.40;44.80;;;;;;5031931;28;20033;-81
2022/04/18 04:23:46;;;;;;;6.28;3.63;;;14.20;44.80;;;;;;5033787;28;20033;-82
2022/04/18 04:26:12;;;;;;;4.85;3.33;;;14.10;45.10;;;;;;5036041;28;20026;-81
2022/04/18 04:28:38;;;;;;;6.30;3.20;;;13.90;45.30;;;;;;5036176;28;20044;-82
2022/04/18 04:31:03;;;;;;;5.75;3.30;;;13.80;45.10;;;;;;5035743;28;20104;-82
2022/04/18 04:33:33;;;;;;;5.55;3.25;;;13.60;44.90;;;;;;5036161;28;20486;-83
2022/04/18 04:35:59;;;;;;;5.68;3.08;;;13.50;45.10;;;;;;5036140;28;20381;-82
2022/04/18 04:38:28;;;;;;;5.10;3.40;;;13.80;45.00;;;;;;5035779;28;20029;-82
2022/04/18 04:40:55;;;;;;;5.68;3.95;;;13.50;45.20;;;;;;5036107;28;20056;-83
2022/04/18 04:43:20;;;;;;;6.03;3.42;;;13.50;45.00;;;;;;5035873;28;20037;-82
2022/04/18 04:45:46;;;;;;;6.22;3.40;;;13.60;46.10;;;;;;5037000;28;20538;-83
2022/04/18 04:48:12;;;;;;;6.53;3.85;;;14.00;45.50;;;;;;5035540;28;20025;-82
2022/04/18 04:50:39;;;;;;;6.05;3.30;;;14.20;44.00;;;;;;5035818;28;20029;-84
2022/04/18 04:53:05;;;;;;;5.88;3.50;;;13.70;45.50;;;;;;5036015;28;20025;-84
2022/04/18 04:55:31;;;;;;;5.43;3.60;;;13.20;46.70;;;;;;5036940;28;20022;-83
2022/04/18 04:57:57;;;;;;;5.30;3.58;;;12.90;46.70;;;;;;5035659;28;20040;-82
2022/04/18 05:00:24;;;;;;;14.88;9.25;;;12.90;47.00;;;;;;5035580;28;20083;-82
2022/04/18 05:02:49;;;;;;;19.65;8.85;;;13.20;46.70;;;;;;5035462;28;20041;-82
2022/04/18 05:05:15;;;;;;;8.20;4.28;;;13.60;46.00;;;;;;5038907;28;20033;-82
2022/04/18 05:07:41;;;;;;;11.38;6.47;;;14.00;45.20;;;;;;5038686;28;20422;-82
2022/04/18 05:10:07;;;;;;;6.72;4.18;;;13.90;45.30;;;;;;5038866;28;20053;-82
2022/04/18 05:12:33;;;;;;;7.15;4.72;;;13.70;46.20;;;;;;5038054;28;20083;-82
2022/04/18 05:15:03;;;;;;;6.75;3.90;;;13.90;45.70;;;;;;5038459;28;20025;-83
2022/04/18 05:17:29;;;;;;;6.30;3.90;;;14.00;46.40;;;;;;5038515;28;20112;-82
2022/04/18 05:19:55;;;;;;;5.55;3.85;;;14.10;46.40;;;;;;5056213;28;20036;-82
2022/04/18 05:22:20;;;;;;;5.93;3.60;;;14.30;46.00;;;;;;5038191;28;20041;-82
2022/04/18 05:24:46;;;;;;;6.43;3.58;;;14.40;45.30;;;;;;5056340;28;20460;-83
2022/04/18 05:27:15;;;;;;;9.18;6.00;;;14.40;45.00;;;;;;5038146;28;20060;-83
2022/04/18 05:29:44;;;;;;;6.82;4.88;;;14.70;44.50;;;;;;5038505;28;20491;-82
2022/04/18 05:32:11;;;;;;;9.68;3.92;;;14.60;44.50;;;;;;5056183;28;20060;-82
2022/04/18 05:34:37;;;;;;;5.93;3.85;;;14.30;44.50;;;;;;5037842;28;20025;-83
2022/04/18 05:37:03;;;;;;;5.93;4.03;;;14.10;44.70;;;;;;5038111;28;20029;-83
2022/04/18 05:39:29;;;;;;;7.78;4.15;;;14.00;44.20;;;;;;5054663;28;20040;-84
2022/04/18 05:41:56;;;;;;;6.63;4.00;;;13.80;44.30;;;;;;5037936;28;20044;-83
2022/04/18 05:44:24;;;;;;;6.63;4.05;;;13.90;44.40;;;;;;5038100;28;20134;-83
2022/04/18 05:46:50;;;;;;;5.65;3.67;;;13.90;45.00;;;;;;5037896;28;20171;-82
2022/04/18 05:49:16;;;;;;;7.60;3.92;;;13.80;45.00;;;;;;5055793;28;20092;-82
2022/04/18 05:51:42;;;;;;;6.35;4.10;;;13.80;45.00;;;;;;5038026;28;20024;-83
2022/04/18 05:54:08;;;;;;;6.30;3.80;;;14.00;44.30;;;;;;5038002;28;20535;-83
2022/04/18 05:56:34;;;;;;;6.85;4.05;;;14.50;44.60;;;;;;5037849;28;20029;-82
2022/04/18 05:59:00;;;;;;;6.35;4.10;;;14.80;44.30;;;;;;5037461;28;20399;-82
2022/04/18 06:01:28;;;;;;;5.88;4.10;;;14.60;44.30;;;;;;5037843;28;20078;-82
2022/04/18 06:03:55;;;;;;;6.00;4.35;;;14.70;44.60;;;;;;5037609;28;20060;-83
2022/04/18 06:06:20;;;;;;;6.65;4.00;;;14.70;44.40;;;;;;5037564;28;20067;-82
2022/04/18 06:08:47;;;;;;;6.47;4.13;;;14.60;44.20;;;;;;5037242;28;20112;-82
2022/04/18 06:11:13;;;;;;;7.93;4.20;;;14.70;44.60;;;;;;5037529;28;20025;-84
2022/04/18 06:13:38;;;;;;;7.43;4.30;;;15.10;44.00;;;;;;5037636;28;20087;-83
2022/04/18 06:16:05;;;;;;;7.85;4.63;;;15.50;43.50;;;;;;5037281;28;20068;-84
2022/04/18 06:18:30;;;;;;;7.35;4.60;;;16.00;42.40;;;;;;5037389;28;20430;-84
2022/04/18 06:20:56;;;;;;;12.80;7.55;;;16.20;40.40;;;;;;5037442;28;20460;-83
2022/04/18 06:23:22;;;;;;;8.63;5.45;;;16.50;40.80;;;;;;5037309;28;20124;-83
2022/04/18 06:25:48;;;;;;;6.40;3.90;;;16.50;41.60;;;;;;5037462;28;20112;-83
2022/04/18 06:28:15;;;;;;;29.70;16.55;;;16.60;41.30;;;;;;5036859;28;20124;-83
2022/04/18 06:30:41;;;;;;;22.38;12.13;;;16.70;40.70;;;;;;5036985;28;20044;-83
2022/04/18 06:33:10;;;;;;;20.85;10.90;;;16.50;39.90;;;;;;5054906;28;20025;-83
2022/04/18 06:35:36;;;;;;;16.00;6.75;;;16.50;40.80;;;;;;5054838;28;20017;-83
2022/04/18 06:38:02;;;;;;;7.00;4.45;;;16.40;40.60;;;;;;4705022;28;10000743;-83
2022/04/18 06:40:28;;;;;;;7.78;5.20;;;16.40;40.60;;;;;;5036116;28;20327;-80
2022/04/18 06:42:53;;;;;;;6.25;3.70;;;16.60;40.30;;;;;;5035515;28;20091;-83
2022/04/18 06:45:19;;;;;;;6.05;3.90;;;17.00;38.60;;;;;;5035784;28;20044;-82
2022/04/18 06:47:45;;;;;;;5.88;3.53;;;17.20;40.00;;;;;;5034227;28;20126;-83
2022/04/18 06:50:12;;;;;;;6.03;3.95;;;17.50;39.50;;;;;;5034415;28;20021;-80
2022/04/18 06:52:46;;;;;;;6.75;3.88;;;17.10;40.00;;;;;;5052255;28;20025;-83
2022/04/18 06:55:11;;;;;;;5.82;3.40;;;17.20;39.60;;;;;;5035158;28;20025;-80
2022/04/18 06:57:38;;;;;;;5.90;3.50;;;17.60;39.40;;;;;;5051558;28;20036;-82
2022/04/18 07:00:06;;;;;;;5.05;3.22;;;18.80;38.00;;;;;;5035136;28;20032;-83
2022/04/18 07:02:32;;;;;;;6.18;4.05;;;20.20;36.20;;;;;;5035783;28;20037;-84
2022/04/18 07:04:57;;;;;;;4.85;3.00;;;21.70;34.60;;;;;;5034462;28;20558;-81
2022/04/18 07:07:23;;;;;;;4.72;2.97;;;21.00;32.70;;;;;;5051496;28;20104;-82
2022/04/18 07:09:49;;;;;;;5.68;2.85;;;21.00;33.70;;;;;;5035322;28;20021;-84
2022/04/18 07:12:14;;;;;;;5.38;3.40;;;21.30;33.50;;;;;;5053003;28;20074;-82
2022/04/18 07:14:41;;;;;;;4.55;2.88;;;21.10;33.00;;;;;;5033885;28;20035;-81
2022/04/18 07:17:07;;;;;;;5.10;2.95;;;21.10;33.40;;;;;;5033471;28;20032;-84
2022/04/18 07:19:33;;;;;;;5.55;3.10;;;21.30;33.20;;;;;;5052211;28;20025;-82
2022/04/18 07:21:59;;;;;;;5.18;3.08;;;21.50;33.30;;;;;;5050933;28;20039;-80
2022/04/18 07:24:25;;;;;;;5.60;2.80;;;21.40;31.90;;;;;;5033865;28;20052;-84
2022/04/18 07:26:51;;;;;;;4.75;2.72;;;21.00;31.40;;;;;;5034442;28;20479;-83
2022/04/18 07:29:17;;;;;;;4.25;2.50;;;20.60;33.10;;;;;;5034796;28;20040;-82
2022/04/18 07:31:43;;;;;;;5.00;2.88;;;19.90;32.30;;;;;;5035466;28;20044;-83
2022/04/18 07:34:09;;;;;;;5.68;2.75;;;20.30;33.80;;;;;;5034707;28;20033;-85
2022/04/18 07:36:35;;;;;;;4.93;2.80;;;20.10;32.90;;;;;;4689648;28;9999793;-84
2022/04/18 07:39:01;;;;;;;4.65;2.90;;;20.40;32.20;;;;;;5015191;28;20038;-83
2022/04/18 07:41:28;;;;;;;5.15;2.92;;;20.80;34.20;;;;;;5015236;28;20033;-84
2022/04/18 07:43:56;;;;;;;4.78;3.05;;;20.70;34.20;;;;;;5016286;28;20442;-83
2022/04/18 07:46:22;;;;;;;4.72;3.10;;;21.40;34.00;;;;;;5016585;28;20095;-83
2022/04/18 07:48:49;;;;;;;4.68;2.83;;;22.50;33.40;;;;;;5016588;28;20143;-84
2022/04/18 07:54:02;;;;;;;4.88;2.90;;;23.30;31.60;;;;;;5034049;28;20079;-83
2022/04/18 07:56:31;;;;;;;5.25;2.80;;;23.20;31.70;;;;;;5019400;28;20028;-82
2022/04/18 07:58:57;;;;;;;4.05;2.47;;;23.60;30.80;;;;;;5044899;28;20067;-82
2022/04/18 08:01:22;;;;;;;4.90;2.80;;;22.30;31.20;;;;;;5018399;28;20021;-82
2022/04/18 08:03:49;;;;;;;4.50;2.63;;;22.60;31.00;;;;;;5015803;28;20480;-84
2022/04/18 08:06:16;;;;;;;4.43;2.33;;;23.30;30.00;;;;;;5015796;28;20031;-84
2022/04/18 08:08:42;;;;;;;4.88;2.80;;;24.10;30.40;;;;;;5015904;28;20179;-83
2022/04/18 08:11:11;;;;;;;9.82;3.33;;;25.30;29.90;;;;;;5015616;28;20366;-84
2022/04/18 08:13:41;;;;;;;4.25;2.40;;;27.10;30.20;;;;;;5015796;28;20029;-83
2022/04/18 08:16:08;;;;;;;4.07;2.42;;;27.50;28.70;;;;;;5011362;28;20041;-83
2022/04/18 08:18:38;;;;;;;4.78;2.47;;;27.30;29.40;;;;;;5015568;28;20048;-82
2022/04/18 08:21:04;;;;;;;4.18;2.63;;;27.70;29.80;;;;;;5032771;28;20026;-80
2022/04/18 08:23:32;;;;;;;7.05;2.95;;;27.80;29.10;;;;;;5015034;28;20099;-82
2022/04/18 08:25:58;;;;;;;6.05;2.30;;;26.10;28.90;;;;;;5015093;28;20021;-81
2022/04/18 08:28:25;;;;;;;5.78;2.60;;;24.10;28.90;;;;;;5015122;28;20025;-84
2022/04/18 08:30:51;;;;;;;4.25;2.55;;;23.30;29.90;;;;;;5015412;28;20025;-80
2022/04/18 08:33:17;;;;;;;4.35;2.65;;;22.20;29.80;;;;;;5015527;28;20037;-83
2022/04/18 08:35:43;;;;;;;5.43;2.70;;;21.80;30.20;;;;;;5018718;28;20021;-82
2022/04/18 08:38:09;;;;;;;3.90;2.40;;;21.80;31.20;;;;;;5041078;28;20047;-82
2022/04/18 08:40:37;;;;;;;4.75;2.40;;;23.80;30.50;;;;;;5035107;28;20060;-82
2022/04/18 08:43:02;;;;;;;5.85;2.63;;;25.70;30.10;;;;;;5034832;28;20040;-83
2022/04/18 08:45:28;;;;;;;5.80;2.70;;;27.00;29.00;;;;;;5035216;28;20021;-80
2022/04/18 08:53:30;;;;;;;6.80;2.65;;;26.30;29.00;;;;;;5053291;28;20491;-82
2022/04/18 08:55:58;;;;;;;5.20;3.33;;;26.10;29.80;;;;;;4672692;28;10000052;-81
2022/04/18 08:58:26;;;;;;;4.25;2.38;;;26.30;29.10;;;;;;5021469;28;20037;-82
2022/04/18 09:00:53;;;;;;;7.82;2.53;;;26.20;30.00;;;;;;5033586;28;20153;-83
2022/04/18 09:03:19;;;;;;;6.28;2.80;;;25.00;29.50;;;;;;5026468;28;20041;-80
2022/04/18 09:05:46;;;;;;;4.75;2.53;;;24.80;29.40;;;;;;5023459;28;20025;-81
2022/04/18 09:08:13;;;;;;;14.20;3.72;;;24.60;29.40;;;;;;5024353;28;20028;-81
2022/04/18 09:10:40;;;;;;;5.53;2.47;;;23.00;30.00;;;;;;5021386;28;20913;-79
2022/04/18 09:13:14;;;;;;;3.90;2.40;;;22.20;31.10;;;;;;5024944;28;20029;-77
2022/04/18 09:15:41;;;;;;;5.32;2.58;;;22.30;30.20;;;;;;5025010;28;20031;-84
2022/04/18 09:18:08;;;;;;;6.60;2.70;;;22.70;30.40;;;;;;5030770;28;20061;-78
2022/04/18 09:21:04;;;;;;;4.43;2.60;;;23.40;29.90;;;;;;5016681;28;20044;-81
2022/04/18 09:23:32;;;;;;;5.85;3.38;;;24.00;30.60;;;;;;5028366;28;20053;-83
2022/04/18 09:26:05;;;;;;;5.22;2.63;;;25.00;29.30;;;;;;5050793;28;20100;-84
2022/04/18 09:28:31;;;;;;;6.57;2.40;;;25.50;30.10;;;;;;5035589;28;20064;-82
2022/04/18 09:31:01;;;;;;;5.55;2.40;;;27.20;30.20;;;;;;5034881;28;20028;-82
2022/04/18 09:33:42;;;;;;;6.00;2.30;;;28.90;30.20;;;;;;5023290;28;20048;-79
2022/04/18 09:36:18;;;;;;;8.13;2.65;;;30.50;29.90;;;;;;5025190;28;20021;-79
2022/04/18 09:38:47;;;;;;;4.15;2.50;;;31.30;29.30;;;;;;5024366;28;20030;-81
2022/04/18 09:41:15;;;;;;;8.63;2.60;;;32.10;29.20;;;;;;5034164;28;20609;-81
2022/04/18 09:43:48;;;;;;;3.97;2.35;;;32.20;29.10;;;;;;5016639;28;20168;-82
2022/04/18 09:46:14;;;;;;;5.15;2.45;;;32.40;28.70;;;;;;5018965;28;20116;-78
2022/04/18 09:48:44;;;;;;;8.25;2.60;;;31.60;28.30;;;;;;5035925;28;20028;-82
2022/04/18 09:51:11;;;;;;;6.15;2.50;;;30.60;29.60;;;;;;5035048;28;20025;-80
2022/04/18 09:53:38;;;;;;;4.20;2.47;;;29.90;28.60;;;;;;5039748;28;20026;-80
2022/04/18 09:56:05;;;;;;;3.97;2.60;;;28.80;28.80;;;;;;5035033;28;20041;-79
2022/04/18 09:58:32;;;;;;;7.82;2.67;;;27.80;29.50;;;;;;5034070;28;20380;-78
2022/04/18 10:01:02;;;;;;;4.43;2.47;;;27.70;28.80;;;;;;5016164;28;20557;-85
2022/04/18 10:03:28;;;;;;;4.10;2.50;;;26.00;29.20;;;;;;5024528;28;20044;-80
2022/04/18 10:05:55;;;;;;;4.82;2.75;;;24.00;30.30;;;;;;5053291;28;20036;-85
2022/04/18 10:08:21;;;;;;;6.45;2.75;;;23.20;30.30;;;;;;5037073;28;20033;-79
2022/04/18 10:10:48;;;;;;;6.45;2.63;;;22.00;30.70;;;;;;5035922;28;20380;-85
2022/04/18 10:13:13;;;;;;;5.90;3.40;;;21.30;33.10;;;;;;5053933;28;20052;-82
2022/04/18 10:15:39;;;;;;;7.53;4.07;;;21.50;31.00;;;;;;5026522;28;20045;-83
2022/04/18 10:18:08;;;;;;;5.40;3.00;;;21.40;31.20;;;;;;5043923;28;20455;-79
2022/04/18 10:21:07;;;;;;;7.95;3.30;;;21.00;30.70;;;;;;5033166;28;20448;-80
2022/04/18 10:23:55;;;;;;;5.95;4.28;;;21.10;31.20;;;;;;5016572;28;20029;-80
2022/04/18 10:27:00;;;;;;;6.00;3.13;;;20.60;31.50;;;;;;5023518;28;20030;-84
2022/04/18 10:29:30;;;;;;;4.22;2.50;;;20.60;31.50;;;;;;5034630;28;20029;-78
2022/04/18 10:32:03;;;;;;;3.90;2.20;;;19.70;33.00;;;;;;5033259;28;20450;-80
2022/04/18 10:34:31;;;;;;;3.67;2.20;;;19.10;33.30;;;;;;5034470;28;20044;-78
2022/04/18 10:37:00;;;;;;;3.97;2.50;;;18.70;33.30;;;;;;5034692;28;20021;-84
2022/04/18 10:39:36;;;;;;;5.07;2.70;;;18.90;33.30;;;;;;5015189;28;20025;-77
2022/04/18 10:42:19;;;;;;;8.05;4.05;;;19.90;33.60;;;;;;5023043;28;20033;-80
2022/04/18 10:44:59;;;;;;;5.68;2.85;;;22.30;33.40;;;;;;5033366;28;20110;-83
2022/04/18 10:47:26;;;;;;;4.13;2.33;;;25.10;32.50;;;;;;5026324;28;20119;-80
2022/04/18 10:50:18;;;;;;;5.90;2.58;;;27.50;30.90;;;;;;5023994;28;20037;-82
2022/04/18 10:53:31;;;;;;;4.30;2.33;;;30.10;30.60;;;;;;5029376;28;20127;-83
2022/04/18 10:55:57;;;;;;;9.45;2.90;;;31.00;29.20;;;;;;4954662;28;20067;-83
2022/04/18 10:58:29;;;;;;;4.05;2.38;;;31.30;29.30;;;;;;4971220;28;20039;-82
2022/04/18 11:00:56;;;;;;;29.58;3.05;;;31.60;29.20;;;;;;4969470;28;20031;-78
2022/04/18 11:03:46;;;;;;;4.38;2.50;;;30.70;29.20;;;;;;4957791;28;20121;-82
2022/04/18 11:06:17;;;;;;;6.70;2.50;;;28.60;29.30;;;;;;4939245;28;20031;-81
2022/04/18 11:09:01;;;;;;;3.72;2.20;;;26.00;29.40;;;;;;4971159;28;20062;-81
2022/04/18 11:11:48;;;;;;;4.82;2.30;;;24.40;30.00;;;;;;4955587;28;20031;-81
2022/04/18 11:14:19;;;;;;;3.45;2.10;;;22.80;29.20;;;;;;4967060;28;20035;-79
2022/04/18 11:16:45;;;;;;;6.93;2.20;;;22.20;31.10;;;;;;4963144;28;20075;-80
2022/04/18 11:19:13;;;;;;;4.15;2.20;;;21.10;29.80;;;;;;4957161;28;20501;-82
2022/04/18 11:21:58;;;;;;;4.63;2.30;;;20.10;30.80;;;;;;4971342;28;20041;-82
2022/04/18 11:24:42;;;;;;;5.45;2.30;;;19.60;33.20;;;;;;4968178;28;20122;-82
2022/04/18 11:27:09;;;;;;;4.03;2.30;;;19.10;31.50;;;;;;4971155;28;20043;-83
2022/04/18 11:29:36;;;;;;;4.25;2.30;;;19.30;31.20;;;;;;4970170;28;20030;-78
2022/04/18 11:32:03;;;;;;;5.10;2.25;;;18.40;31.10;;;;;;4960491;28;20029;-82
2022/04/18 11:34:30;;;;;;;3.67;2.08;;;18.00;31.60;;;;;;4687578;28;9999683;-79
2022/04/18 11:36:57;;;;;;;3.97;2.30;;;17.70;32.10;;;;;;5042913;28;20387;-80
2022/04/18 11:39:23;;;;;;;3.40;2.00;;;17.30;31.70;;;;;;5051289;28;20020;-82
2022/04/18 11:42:00;;;;;;;6.05;2.47;;;17.00;32.00;;;;;;5036036;28;20025;-84
2022/04/18 11:44:26;;;;;;;5.00;2.20;;;17.70;33.50;;;;;;5053401;28;20029;-82
2022/04/18 11:46:52;;;;;;;5.97;2.50;;;18.80;31.20;;;;;;5053866;28;20044;-84
2022/04/18 11:49:26;;;;;;;3.80;2.20;;;19.40;31.50;;;;;;5036052;28;20032;-85
2022/04/18 11:51:53;;;;;;;4.25;2.20;;;20.30;32.20;;;;;;5053446;28;20025;-84
2022/04/18 11:54:18;;;;;;;5.07;2.35;;;20.50;31.20;;;;;;5036181;28;20553;-80
2022/04/18 11:56:59;;;;;;;4.55;1.92;;;20.50;31.70;;;;;;5035698;28;20082;-84
2022/04/18 11:59:32;;;;;;;4.28;2.38;;;19.90;31.60;;;;;;5053483;28;20556;-84
2022/04/18 12:07:31;;;;;;;4.55;2.60;;;18.20;33.90;;;;;;5053710;28;20036;-83
2022/04/18 12:09:57;;;;;;;3.85;2.30;;;18.40;34.30;;;;;;5035482;28;20075;-85
2022/04/18 12:12:30;;;;;;;5.28;2.95;;;18.70;34.40;;;;;;5053347;28;20017;-83
2022/04/18 12:15:06;;;;;;;6.97;3.30;;;19.40;35.40;;;;;;5035568;28;20028;-83
2022/04/18 12:17:34;;;;;;;5.35;2.42;;;19.80;34.90;;;;;;5053573;28;20444;-81
2022/04/18 12:20:29;;;;;;;5.60;2.70;;;20.50;34.20;;;;;;5052781;28;20039;-84
2022/04/18 12:23:03;;;;;;;5.72;2.45;;;21.10;34.20;;;;;;5053290;28;20040;-85
2022/04/18 12:25:31;;;;;;;6.05;2.38;;;21.10;33.30;;;;;;5035827;28;20064;-80
2022/04/18 12:28:00;;;;;;;6.50;2.30;;;21.50;33.00;;;;;;5052853;28;20129;-80
2022/04/18 12:30:27;;;;;;;3.60;2.38;;;21.80;33.30;;;;;;5053403;28;20021;-84
2022/04/18 12:32:54;;;;;;;6.13;2.50;;;22.00;32.50;;;;;;5052355;28;20029;-81
2022/04/18 12:35:38;;;;;;;3.55;2.20;;;22.00;32.60;;;;;;5051984;28;20036;-84
2022/04/18 12:38:05;;;;;;;5.20;2.70;;;21.80;32.70;;;;;;5052681;28;20025;-83
2022/04/18 12:40:46;;;;;;;7.88;4.32;;;22.00;32.10;;;;;;4687657;28;9999860;-82
2022/04/18 12:43:15;;;;;;;;;;;22.40;32.40;;;;;;5015686;28;20034;-83
2022/04/18 12:45:59;;;;;;;6.40;3.00;;;22.20;32.00;;;;;;5034842;28;20364;-84
2022/04/18 12:48:26;;;;;;;4.22;2.22;;;21.40;32.00;;;;;;5030599;28;20400;-85
2022/04/18 12:50:52;;;;;;;6.30;2.45;;;20.40;31.50;;;;;;5034129;28;20093;-86
2022/04/18 12:53:20;;;;;;;4.15;2.42;;;18.40;33.10;;;;;;5040474;28;20168;-77
2022/04/18 12:55:46;;;;;;;4.43;2.20;;;17.20;33.00;;;;;;5038629;28;20034;-80
2022/04/18 12:58:18;;;;;;;5.22;2.80;;;16.70;34.50;;;;;;5020567;28;20021;-81
2022/04/18 13:00:48;;;;;;;7.43;4.40;;;16.90;33.40;;;;;;5035229;28;20057;-81
2022/04/18 13:03:15;;;;;;;10.32;8.73;;;17.20;33.80;;;;;;5037066;28;20033;-83
2022/04/18 13:05:50;;;;;;;4.35;2.65;;;18.20;33.70;;;;;;5053419;28;20107;-78
2022/04/18 13:08:17;;;;;;;4.25;2.50;;;18.00;33.00;;;;;;5029003;28;20079;-80
2022/04/18 13:10:44;;;;;;;4.43;2.63;;;18.50;33.50;;;;;;5022149;28;20021;-82
2022/04/18 13:13:14;;;;;;;5.70;2.70;;;17.70;36.30;;;;;;5027892;28;20051;-80